<?xml version="1.0" encoding="UTF-8" standalone="no" ?>
<gpx xmlns="http://www.topografix.com/GPX/1/1" xmlns:xsi="http://www.w3.org/2001/XMLSchema-instance" xsi:schemaLocation="http://www.topografix.com/GPX/1/1 http://www.topografix.com/GPX/1/1/gpx.xsd" version="1.1" creator="VisuGPX - https://www.visugpx.com">
  <metadata>
    <name>Le Puy-Saint-Bonnet</name>
  </metadata>
  <trk>
    <name><![CDATA[15643039-le puy]]></name>
    <trkseg>
      <trkpt lat="46.99529" lon="-0.90057">
        <ele>123</ele>
        <time>2022-10-04T10:50:36Z</time>
      </trkpt>
      <trkpt lat="46.99527" lon="-0.90042">
        <ele>123</ele>
        <time>2022-10-04T10:50:50Z</time>
      </trkpt>
      <trkpt lat="46.99525" lon="-0.90038">
        <ele>123</ele>
        <time>2022-10-04T10:50:54Z</time>
      </trkpt>
      <trkpt lat="46.9952" lon="-0.90038">
        <ele>123</ele>
        <time>2022-10-04T10:51:01Z</time>
      </trkpt>
      <trkpt lat="46.99501" lon="-0.90048">
        <ele>123</ele>
        <time>2022-10-04T10:51:28Z</time>
      </trkpt>
      <trkpt lat="46.99459" lon="-0.90086">
        <ele>123</ele>
        <time>2022-10-04T10:52:34Z</time>
      </trkpt>
      <trkpt lat="46.99444" lon="-0.90093">
        <ele>124</ele>
        <time>2022-10-04T10:52:55Z</time>
      </trkpt>
      <trkpt lat="46.99426" lon="-0.90093">
        <ele>124</ele>
        <time>2022-10-04T10:53:19Z</time>
      </trkpt>
      <trkpt lat="46.99416" lon="-0.90097">
        <ele>124</ele>
        <time>2022-10-04T10:53:33Z</time>
      </trkpt>
      <trkpt lat="46.99408" lon="-0.90096">
        <ele>124</ele>
        <time>2022-10-04T10:53:43Z</time>
      </trkpt>
      <trkpt lat="46.99395" lon="-0.90089">
        <ele>125</ele>
        <time>2022-10-04T10:54:02Z</time>
      </trkpt>
      <trkpt lat="46.99391" lon="-0.90082">
        <ele>125</ele>
        <time>2022-10-04T10:54:10Z</time>
      </trkpt>
      <trkpt lat="46.99357" lon="-0.90052">
        <ele>126</ele>
        <time>2022-10-04T10:55:03Z</time>
      </trkpt>
      <trkpt lat="46.99354" lon="-0.90052">
        <ele>127</ele>
        <time>2022-10-04T10:55:07Z</time>
      </trkpt>
      <trkpt lat="46.99353" lon="-0.90058">
        <ele>126</ele>
        <time>2022-10-04T10:55:13Z</time>
      </trkpt>
      <trkpt lat="46.99341" lon="-0.9003">
        <ele>128</ele>
        <time>2022-10-04T10:55:43Z</time>
      </trkpt>
      <trkpt lat="46.99323" lon="-0.90007">
        <ele>130</ele>
        <time>2022-10-04T10:56:15Z</time>
      </trkpt>
      <trkpt lat="46.99307" lon="-0.89972">
        <ele>131</ele>
        <time>2022-10-04T10:56:53Z</time>
      </trkpt>
      <trkpt lat="46.9929" lon="-0.89945">
        <ele>131</ele>
        <time>2022-10-04T10:57:27Z</time>
      </trkpt>
      <trkpt lat="46.99297" lon="-0.89951">
        <ele>131</ele>
        <time>2022-10-04T10:57:37Z</time>
      </trkpt>
      <trkpt lat="46.99302" lon="-0.8996">
        <ele>131</ele>
        <time>2022-10-04T10:57:48Z</time>
      </trkpt>
      <trkpt lat="46.99308" lon="-0.89982">
        <ele>131</ele>
        <time>2022-10-04T10:58:10Z</time>
      </trkpt>
      <trkpt lat="46.99301" lon="-0.89974">
        <ele>131</ele>
        <time>2022-10-04T10:58:21Z</time>
      </trkpt>
      <trkpt lat="46.99296" lon="-0.8996">
        <ele>131</ele>
        <time>2022-10-04T10:58:36Z</time>
      </trkpt>
      <trkpt lat="46.99304" lon="-0.89967">
        <ele>131</ele>
        <time>2022-10-04T10:58:48Z</time>
      </trkpt>
      <trkpt lat="46.99313" lon="-0.8999">
        <ele>131</ele>
        <time>2022-10-04T10:59:12Z</time>
      </trkpt>
      <trkpt lat="46.99312" lon="-0.89992">
        <ele>131</ele>
        <time>2022-10-04T10:59:15Z</time>
      </trkpt>
      <trkpt lat="46.99302" lon="-0.89981">
        <ele>131</ele>
        <time>2022-10-04T10:59:31Z</time>
      </trkpt>
      <trkpt lat="46.99299" lon="-0.89972">
        <ele>131</ele>
        <time>2022-10-04T10:59:40Z</time>
      </trkpt>
      <trkpt lat="46.99297" lon="-0.89972">
        <ele>131</ele>
        <time>2022-10-04T10:59:43Z</time>
      </trkpt>
      <trkpt lat="46.99296" lon="-0.89961">
        <ele>131</ele>
        <time>2022-10-04T10:59:53Z</time>
      </trkpt>
      <trkpt lat="46.99287" lon="-0.89941">
        <ele>131</ele>
        <time>2022-10-04T11:00:15Z</time>
      </trkpt>
      <trkpt lat="46.99282" lon="-0.89893">
        <ele>132</ele>
        <time>2022-10-04T11:00:59Z</time>
      </trkpt>
      <trkpt lat="46.99271" lon="-0.89875">
        <ele>132</ele>
        <time>2022-10-04T11:01:21Z</time>
      </trkpt>
      <trkpt lat="46.99259" lon="-0.89865">
        <ele>132</ele>
        <time>2022-10-04T11:01:40Z</time>
      </trkpt>
      <trkpt lat="46.9924" lon="-0.89836">
        <ele>132</ele>
        <time>2022-10-04T11:02:16Z</time>
      </trkpt>
      <trkpt lat="46.99228" lon="-0.89809">
        <ele>132</ele>
        <time>2022-10-04T11:02:46Z</time>
      </trkpt>
      <trkpt lat="46.99224" lon="-0.89794">
        <ele>132</ele>
        <time>2022-10-04T11:03:00Z</time>
      </trkpt>
      <trkpt lat="46.99221" lon="-0.89762">
        <ele>133</ele>
        <time>2022-10-04T11:03:30Z</time>
      </trkpt>
      <trkpt lat="46.99205" lon="-0.89722">
        <ele>133</ele>
        <time>2022-10-04T11:04:12Z</time>
      </trkpt>
      <trkpt lat="46.99205" lon="-0.89712">
        <ele>133</ele>
        <time>2022-10-04T11:04:21Z</time>
      </trkpt>
      <trkpt lat="46.99217" lon="-0.89665">
        <ele>133</ele>
        <time>2022-10-04T11:05:07Z</time>
      </trkpt>
      <trkpt lat="46.99214" lon="-0.89654">
        <ele>133</ele>
        <time>2022-10-04T11:05:17Z</time>
      </trkpt>
      <trkpt lat="46.99216" lon="-0.89652">
        <ele>133</ele>
        <time>2022-10-04T11:05:21Z</time>
      </trkpt>
      <trkpt lat="46.99226" lon="-0.89657">
        <ele>133</ele>
        <time>2022-10-04T11:05:35Z</time>
      </trkpt>
      <trkpt lat="46.99226" lon="-0.89671">
        <ele>133</ele>
        <time>2022-10-04T11:05:47Z</time>
      </trkpt>
      <trkpt lat="46.99216" lon="-0.89689">
        <ele>133</ele>
        <time>2022-10-04T11:06:09Z</time>
      </trkpt>
      <trkpt lat="46.99222" lon="-0.89667">
        <ele>133</ele>
        <time>2022-10-04T11:06:30Z</time>
      </trkpt>
      <trkpt lat="46.99222" lon="-0.89655">
        <ele>133</ele>
        <time>2022-10-04T11:06:41Z</time>
      </trkpt>
      <trkpt lat="46.99214" lon="-0.8964">
        <ele>132</ele>
        <time>2022-10-04T11:06:58Z</time>
      </trkpt>
      <trkpt lat="46.99196" lon="-0.89617">
        <ele>132</ele>
        <time>2022-10-04T11:07:30Z</time>
      </trkpt>
      <trkpt lat="46.99185" lon="-0.89589">
        <ele>131</ele>
        <time>2022-10-04T11:08:00Z</time>
      </trkpt>
      <trkpt lat="46.99165" lon="-0.8955">
        <ele>131</ele>
        <time>2022-10-04T11:08:44Z</time>
      </trkpt>
      <trkpt lat="46.99154" lon="-0.89539">
        <ele>131</ele>
        <time>2022-10-04T11:09:02Z</time>
      </trkpt>
      <trkpt lat="46.99125" lon="-0.89482">
        <ele>132</ele>
        <time>2022-10-04T11:10:07Z</time>
      </trkpt>
      <trkpt lat="46.99119" lon="-0.89472">
        <ele>132</ele>
        <time>2022-10-04T11:10:19Z</time>
      </trkpt>
      <trkpt lat="46.99113" lon="-0.89471">
        <ele>132</ele>
        <time>2022-10-04T11:10:27Z</time>
      </trkpt>
      <trkpt lat="46.99108" lon="-0.89473">
        <ele>132</ele>
        <time>2022-10-04T11:10:34Z</time>
      </trkpt>
      <trkpt lat="46.99103" lon="-0.89479">
        <ele>133</ele>
        <time>2022-10-04T11:10:42Z</time>
      </trkpt>
      <trkpt lat="46.991" lon="-0.89489">
        <ele>133</ele>
        <time>2022-10-04T11:10:52Z</time>
      </trkpt>
      <trkpt lat="46.99073" lon="-0.89534">
        <ele>133</ele>
        <time>2022-10-04T11:11:47Z</time>
      </trkpt>
      <trkpt lat="46.99052" lon="-0.89591">
        <ele>133</ele>
        <time>2022-10-04T11:12:46Z</time>
      </trkpt>
      <trkpt lat="46.99047" lon="-0.89611">
        <ele>134</ele>
        <time>2022-10-04T11:13:05Z</time>
      </trkpt>
      <trkpt lat="46.99029" lon="-0.89652">
        <ele>134</ele>
        <time>2022-10-04T11:13:50Z</time>
      </trkpt>
      <trkpt lat="46.99021" lon="-0.89679">
        <ele>135</ele>
        <time>2022-10-04T11:14:16Z</time>
      </trkpt>
      <trkpt lat="46.99006" lon="-0.89702">
        <ele>135</ele>
        <time>2022-10-04T11:14:45Z</time>
      </trkpt>
      <trkpt lat="46.98994" lon="-0.8973">
        <ele>135</ele>
        <time>2022-10-04T11:15:15Z</time>
      </trkpt>
      <trkpt lat="46.98954" lon="-0.89794">
        <ele>133</ele>
        <time>2022-10-04T11:16:34Z</time>
      </trkpt>
      <trkpt lat="46.98899" lon="-0.89861">
        <ele>132</ele>
        <time>2022-10-04T11:18:10Z</time>
      </trkpt>
      <trkpt lat="46.98874" lon="-0.89895">
        <ele>132</ele>
        <time>2022-10-04T11:18:55Z</time>
      </trkpt>
      <trkpt lat="46.98866" lon="-0.89902">
        <ele>132</ele>
        <time>2022-10-04T11:19:08Z</time>
      </trkpt>
      <trkpt lat="46.98857" lon="-0.899">
        <ele>132</ele>
        <time>2022-10-04T11:19:20Z</time>
      </trkpt>
      <trkpt lat="46.98857" lon="-0.89914">
        <ele>132</ele>
        <time>2022-10-04T11:19:33Z</time>
      </trkpt>
      <trkpt lat="46.98848" lon="-0.89929">
        <ele>132</ele>
        <time>2022-10-04T11:19:51Z</time>
      </trkpt>
      <trkpt lat="46.98828" lon="-0.89944">
        <ele>132</ele>
        <time>2022-10-04T11:20:21Z</time>
      </trkpt>
      <trkpt lat="46.98797" lon="-0.8998">
        <ele>131</ele>
        <time>2022-10-04T11:21:14Z</time>
      </trkpt>
      <trkpt lat="46.98785" lon="-0.89985">
        <ele>131</ele>
        <time>2022-10-04T11:21:30Z</time>
      </trkpt>
      <trkpt lat="46.98762" lon="-0.90009">
        <ele>131</ele>
        <time>2022-10-04T11:22:08Z</time>
      </trkpt>
      <trkpt lat="46.98751" lon="-0.90027">
        <ele>130</ele>
        <time>2022-10-04T11:22:30Z</time>
      </trkpt>
      <trkpt lat="46.98735" lon="-0.90043">
        <ele>130</ele>
        <time>2022-10-04T11:22:56Z</time>
      </trkpt>
      <trkpt lat="46.98701" lon="-0.90087">
        <ele>130</ele>
        <time>2022-10-04T11:23:56Z</time>
      </trkpt>
      <trkpt lat="46.98652" lon="-0.90128">
        <ele>130</ele>
        <time>2022-10-04T11:25:12Z</time>
      </trkpt>
      <trkpt lat="46.98633" lon="-0.90138">
        <ele>130</ele>
        <time>2022-10-04T11:25:39Z</time>
      </trkpt>
      <trkpt lat="46.98594" lon="-0.9015">
        <ele>131</ele>
        <time>2022-10-04T11:26:32Z</time>
      </trkpt>
      <trkpt lat="46.98504" lon="-0.90207">
        <ele>134</ele>
        <time>2022-10-04T11:28:43Z</time>
      </trkpt>
      <trkpt lat="46.98491" lon="-0.90213">
        <ele>134</ele>
        <time>2022-10-04T11:29:01Z</time>
      </trkpt>
      <trkpt lat="46.98467" lon="-0.90219">
        <ele>135</ele>
        <time>2022-10-04T11:29:33Z</time>
      </trkpt>
      <trkpt lat="46.98449" lon="-0.90228">
        <ele>136</ele>
        <time>2022-10-04T11:29:59Z</time>
      </trkpt>
      <trkpt lat="46.9843" lon="-0.90233">
        <ele>137</ele>
        <time>2022-10-04T11:30:24Z</time>
      </trkpt>
      <trkpt lat="46.98412" lon="-0.90242">
        <ele>137</ele>
        <time>2022-10-04T11:30:50Z</time>
      </trkpt>
      <trkpt lat="46.98389" lon="-0.90246">
        <ele>138</ele>
        <time>2022-10-04T11:31:21Z</time>
      </trkpt>
      <trkpt lat="46.98374" lon="-0.90252">
        <ele>139</ele>
        <time>2022-10-04T11:31:41Z</time>
      </trkpt>
      <trkpt lat="46.98362" lon="-0.90252">
        <ele>139</ele>
        <time>2022-10-04T11:31:57Z</time>
      </trkpt>
      <trkpt lat="46.98357" lon="-0.90284">
        <ele>139</ele>
        <time>2022-10-04T11:32:27Z</time>
      </trkpt>
      <trkpt lat="46.9835" lon="-0.9031">
        <ele>139</ele>
        <time>2022-10-04T11:32:53Z</time>
      </trkpt>
      <trkpt lat="46.98326" lon="-0.90365">
        <ele>141</ele>
        <time>2022-10-04T11:33:52Z</time>
      </trkpt>
      <trkpt lat="46.98303" lon="-0.90396">
        <ele>141</ele>
        <time>2022-10-04T11:34:34Z</time>
      </trkpt>
      <trkpt lat="46.98228" lon="-0.90525">
        <ele>145</ele>
        <time>2022-10-04T11:37:08Z</time>
      </trkpt>
      <trkpt lat="46.98203" lon="-0.90577">
        <ele>146</ele>
        <time>2022-10-04T11:38:06Z</time>
      </trkpt>
      <trkpt lat="46.98193" lon="-0.90589">
        <ele>146</ele>
        <time>2022-10-04T11:38:23Z</time>
      </trkpt>
      <trkpt lat="46.98186" lon="-0.90606">
        <ele>146</ele>
        <time>2022-10-04T11:38:41Z</time>
      </trkpt>
      <trkpt lat="46.98163" lon="-0.90647">
        <ele>148</ele>
        <time>2022-10-04T11:39:30Z</time>
      </trkpt>
      <trkpt lat="46.98158" lon="-0.90662">
        <ele>148</ele>
        <time>2022-10-04T11:39:45Z</time>
      </trkpt>
      <trkpt lat="46.9813" lon="-0.90719">
        <ele>149</ele>
        <time>2022-10-04T11:40:49Z</time>
      </trkpt>
      <trkpt lat="46.98122" lon="-0.90759">
        <ele>149</ele>
        <time>2022-10-04T11:41:27Z</time>
      </trkpt>
      <trkpt lat="46.98118" lon="-0.90767">
        <ele>149</ele>
        <time>2022-10-04T11:41:36Z</time>
      </trkpt>
      <trkpt lat="46.98113" lon="-0.9079">
        <ele>149</ele>
        <time>2022-10-04T11:41:58Z</time>
      </trkpt>
      <trkpt lat="46.98106" lon="-0.90852">
        <ele>149</ele>
        <time>2022-10-04T11:42:55Z</time>
      </trkpt>
      <trkpt lat="46.98091" lon="-0.90914">
        <ele>150</ele>
        <time>2022-10-04T11:43:55Z</time>
      </trkpt>
      <trkpt lat="46.98082" lon="-0.90971">
        <ele>150</ele>
        <time>2022-10-04T11:44:48Z</time>
      </trkpt>
      <trkpt lat="46.98078" lon="-0.90988">
        <ele>150</ele>
        <time>2022-10-04T11:45:05Z</time>
      </trkpt>
      <trkpt lat="46.98072" lon="-0.90999">
        <ele>150</ele>
        <time>2022-10-04T11:45:17Z</time>
      </trkpt>
      <trkpt lat="46.98086" lon="-0.91087">
        <ele>149</ele>
        <time>2022-10-04T11:46:40Z</time>
      </trkpt>
      <trkpt lat="46.98092" lon="-0.91159">
        <ele>148</ele>
        <time>2022-10-04T11:47:46Z</time>
      </trkpt>
      <trkpt lat="46.98105" lon="-0.91233">
        <ele>148</ele>
        <time>2022-10-04T11:48:55Z</time>
      </trkpt>
      <trkpt lat="46.98101" lon="-0.91341">
        <ele>148</ele>
        <time>2022-10-04T11:50:34Z</time>
      </trkpt>
      <trkpt lat="46.98086" lon="-0.91467">
        <ele>147</ele>
        <time>2022-10-04T11:52:30Z</time>
      </trkpt>
      <trkpt lat="46.98092" lon="-0.91487">
        <ele>147</ele>
        <time>2022-10-04T11:52:50Z</time>
      </trkpt>
      <trkpt lat="46.98092" lon="-0.9151">
        <ele>147</ele>
        <time>2022-10-04T11:53:11Z</time>
      </trkpt>
      <trkpt lat="46.98081" lon="-0.91563">
        <ele>147</ele>
        <time>2022-10-04T11:54:01Z</time>
      </trkpt>
      <trkpt lat="46.98081" lon="-0.91593">
        <ele>147</ele>
        <time>2022-10-04T11:54:29Z</time>
      </trkpt>
      <trkpt lat="46.98092" lon="-0.91618">
        <ele>147</ele>
        <time>2022-10-04T11:54:56Z</time>
      </trkpt>
      <trkpt lat="46.98106" lon="-0.91638">
        <ele>147</ele>
        <time>2022-10-04T11:55:22Z</time>
      </trkpt>
      <trkpt lat="46.98116" lon="-0.91648">
        <ele>146</ele>
        <time>2022-10-04T11:55:38Z</time>
      </trkpt>
      <trkpt lat="46.98131" lon="-0.91674">
        <ele>145</ele>
        <time>2022-10-04T11:56:09Z</time>
      </trkpt>
      <trkpt lat="46.98153" lon="-0.91702">
        <ele>143</ele>
        <time>2022-10-04T11:56:48Z</time>
      </trkpt>
      <trkpt lat="46.98168" lon="-0.91708">
        <ele>143</ele>
        <time>2022-10-04T11:57:09Z</time>
      </trkpt>
      <trkpt lat="46.98215" lon="-0.91718">
        <ele>142</ele>
        <time>2022-10-04T11:58:12Z</time>
      </trkpt>
      <trkpt lat="46.98229" lon="-0.91715">
        <ele>142</ele>
        <time>2022-10-04T11:58:31Z</time>
      </trkpt>
      <trkpt lat="46.9824" lon="-0.91716">
        <ele>142</ele>
        <time>2022-10-04T11:58:46Z</time>
      </trkpt>
      <trkpt lat="46.98253" lon="-0.91712">
        <ele>142</ele>
        <time>2022-10-04T11:59:03Z</time>
      </trkpt>
      <trkpt lat="46.98288" lon="-0.91731">
        <ele>142</ele>
        <time>2022-10-04T11:59:53Z</time>
      </trkpt>
      <trkpt lat="46.98344" lon="-0.9173">
        <ele>143</ele>
        <time>2022-10-04T12:01:08Z</time>
      </trkpt>
      <trkpt lat="46.98402" lon="-0.91714">
        <ele>143</ele>
        <time>2022-10-04T12:02:27Z</time>
      </trkpt>
      <trkpt lat="46.98428" lon="-0.91712">
        <ele>143</ele>
        <time>2022-10-04T12:03:01Z</time>
      </trkpt>
      <trkpt lat="46.98461" lon="-0.91703">
        <ele>142</ele>
        <time>2022-10-04T12:03:46Z</time>
      </trkpt>
      <trkpt lat="46.98477" lon="-0.91703">
        <ele>142</ele>
        <time>2022-10-04T12:04:08Z</time>
      </trkpt>
      <trkpt lat="46.98512" lon="-0.91693">
        <ele>141</ele>
        <time>2022-10-04T12:04:55Z</time>
      </trkpt>
      <trkpt lat="46.98539" lon="-0.91692">
        <ele>140</ele>
        <time>2022-10-04T12:05:31Z</time>
      </trkpt>
      <trkpt lat="46.98585" lon="-0.91682">
        <ele>139</ele>
        <time>2022-10-04T12:06:33Z</time>
      </trkpt>
      <trkpt lat="46.98607" lon="-0.91673">
        <ele>137</ele>
        <time>2022-10-04T12:07:04Z</time>
      </trkpt>
      <trkpt lat="46.98623" lon="-0.9167">
        <ele>136</ele>
        <time>2022-10-04T12:07:25Z</time>
      </trkpt>
      <trkpt lat="46.98636" lon="-0.91663">
        <ele>135</ele>
        <time>2022-10-04T12:07:44Z</time>
      </trkpt>
      <trkpt lat="46.98651" lon="-0.9166">
        <ele>134</ele>
        <time>2022-10-04T12:08:04Z</time>
      </trkpt>
      <trkpt lat="46.98686" lon="-0.91645">
        <ele>132</ele>
        <time>2022-10-04T12:08:53Z</time>
      </trkpt>
      <trkpt lat="46.98718" lon="-0.91636">
        <ele>131</ele>
        <time>2022-10-04T12:09:36Z</time>
      </trkpt>
      <trkpt lat="46.98758" lon="-0.91614">
        <ele>130</ele>
        <time>2022-10-04T12:10:33Z</time>
      </trkpt>
      <trkpt lat="46.98792" lon="-0.91605">
        <ele>129</ele>
        <time>2022-10-04T12:11:19Z</time>
      </trkpt>
      <trkpt lat="46.98834" lon="-0.91583">
        <ele>128</ele>
        <time>2022-10-04T12:12:19Z</time>
      </trkpt>
      <trkpt lat="46.9885" lon="-0.91579">
        <ele>128</ele>
        <time>2022-10-04T12:12:40Z</time>
      </trkpt>
      <trkpt lat="46.98879" lon="-0.91567">
        <ele>127</ele>
        <time>2022-10-04T12:13:21Z</time>
      </trkpt>
      <trkpt lat="46.98945" lon="-0.9153">
        <ele>127</ele>
        <time>2022-10-04T12:14:55Z</time>
      </trkpt>
      <trkpt lat="46.98964" lon="-0.91524">
        <ele>127</ele>
        <time>2022-10-04T12:15:21Z</time>
      </trkpt>
      <trkpt lat="46.99031" lon="-0.91487">
        <ele>125</ele>
        <time>2022-10-04T12:16:56Z</time>
      </trkpt>
      <trkpt lat="46.99041" lon="-0.91485">
        <ele>125</ele>
        <time>2022-10-04T12:17:10Z</time>
      </trkpt>
      <trkpt lat="46.99066" lon="-0.91461">
        <ele>124</ele>
        <time>2022-10-04T12:17:50Z</time>
      </trkpt>
      <trkpt lat="46.99091" lon="-0.91444">
        <ele>123</ele>
        <time>2022-10-04T12:18:27Z</time>
      </trkpt>
      <trkpt lat="46.99102" lon="-0.91431">
        <ele>122</ele>
        <time>2022-10-04T12:18:45Z</time>
      </trkpt>
      <trkpt lat="46.99119" lon="-0.91394">
        <ele>121</ele>
        <time>2022-10-04T12:19:26Z</time>
      </trkpt>
      <trkpt lat="46.99142" lon="-0.91378">
        <ele>119</ele>
        <time>2022-10-04T12:20:00Z</time>
      </trkpt>
      <trkpt lat="46.99144" lon="-0.91374">
        <ele>119</ele>
        <time>2022-10-04T12:20:04Z</time>
      </trkpt>
      <trkpt lat="46.9916" lon="-0.91363">
        <ele>118</ele>
        <time>2022-10-04T12:20:28Z</time>
      </trkpt>
      <trkpt lat="46.99194" lon="-0.91332">
        <ele>116</ele>
        <time>2022-10-04T12:21:22Z</time>
      </trkpt>
      <trkpt lat="46.99215" lon="-0.91287">
        <ele>116</ele>
        <time>2022-10-04T12:22:11Z</time>
      </trkpt>
      <trkpt lat="46.99233" lon="-0.91258">
        <ele>116</ele>
        <time>2022-10-04T12:22:47Z</time>
      </trkpt>
      <trkpt lat="46.99242" lon="-0.9125">
        <ele>116</ele>
        <time>2022-10-04T12:23:01Z</time>
      </trkpt>
      <trkpt lat="46.99251" lon="-0.91235">
        <ele>116</ele>
        <time>2022-10-04T12:23:19Z</time>
      </trkpt>
      <trkpt lat="46.99265" lon="-0.91222">
        <ele>115</ele>
        <time>2022-10-04T12:23:41Z</time>
      </trkpt>
      <trkpt lat="46.99271" lon="-0.91212">
        <ele>115</ele>
        <time>2022-10-04T12:23:53Z</time>
      </trkpt>
      <trkpt lat="46.99295" lon="-0.91191">
        <ele>114</ele>
        <time>2022-10-04T12:24:31Z</time>
      </trkpt>
      <trkpt lat="46.99296" lon="-0.91187">
        <ele>114</ele>
        <time>2022-10-04T12:24:34Z</time>
      </trkpt>
      <trkpt lat="46.99306" lon="-0.91176">
        <ele>113</ele>
        <time>2022-10-04T12:24:51Z</time>
      </trkpt>
      <trkpt lat="46.99321" lon="-0.9117">
        <ele>112</ele>
        <time>2022-10-04T12:25:12Z</time>
      </trkpt>
      <trkpt lat="46.99324" lon="-0.91171">
        <ele>112</ele>
        <time>2022-10-04T12:25:16Z</time>
      </trkpt>
      <trkpt lat="46.99329" lon="-0.91201">
        <ele>113</ele>
        <time>2022-10-04T12:25:44Z</time>
      </trkpt>
      <trkpt lat="46.99335" lon="-0.91218">
        <ele>113</ele>
        <time>2022-10-04T12:26:02Z</time>
      </trkpt>
      <trkpt lat="46.99348" lon="-0.91237">
        <ele>113</ele>
        <time>2022-10-04T12:26:26Z</time>
      </trkpt>
      <trkpt lat="46.99354" lon="-0.91253">
        <ele>113</ele>
        <time>2022-10-04T12:26:43Z</time>
      </trkpt>
      <trkpt lat="46.99356" lon="-0.91256">
        <ele>113</ele>
        <time>2022-10-04T12:26:46Z</time>
      </trkpt>
      <trkpt lat="46.99359" lon="-0.91256">
        <ele>112</ele>
        <time>2022-10-04T12:26:50Z</time>
      </trkpt>
      <trkpt lat="46.99395" lon="-0.91236">
        <ele>111</ele>
        <time>2022-10-04T12:27:42Z</time>
      </trkpt>
      <trkpt lat="46.99412" lon="-0.91222">
        <ele>111</ele>
        <time>2022-10-04T12:28:08Z</time>
      </trkpt>
      <trkpt lat="46.99423" lon="-0.91218">
        <ele>111</ele>
        <time>2022-10-04T12:28:23Z</time>
      </trkpt>
      <trkpt lat="46.99464" lon="-0.91189">
        <ele>110</ele>
        <time>2022-10-04T12:29:24Z</time>
      </trkpt>
      <trkpt lat="46.99477" lon="-0.91177">
        <ele>110</ele>
        <time>2022-10-04T12:29:44Z</time>
      </trkpt>
      <trkpt lat="46.99525" lon="-0.91149">
        <ele>110</ele>
        <time>2022-10-04T12:30:53Z</time>
      </trkpt>
      <trkpt lat="46.99563" lon="-0.91121">
        <ele>110</ele>
        <time>2022-10-04T12:31:50Z</time>
      </trkpt>
      <trkpt lat="46.99589" lon="-0.91112">
        <ele>110</ele>
        <time>2022-10-04T12:32:26Z</time>
      </trkpt>
      <trkpt lat="46.99618" lon="-0.91092">
        <ele>109</ele>
        <time>2022-10-04T12:33:08Z</time>
      </trkpt>
      <trkpt lat="46.99625" lon="-0.91084">
        <ele>109</ele>
        <time>2022-10-04T12:33:20Z</time>
      </trkpt>
      <trkpt lat="46.99644" lon="-0.91075">
        <ele>109</ele>
        <time>2022-10-04T12:33:47Z</time>
      </trkpt>
      <trkpt lat="46.99687" lon="-0.91047">
        <ele>108</ele>
        <time>2022-10-04T12:34:50Z</time>
      </trkpt>
      <trkpt lat="46.9979" lon="-0.90971">
        <ele>109</ele>
        <time>2022-10-04T12:37:23Z</time>
      </trkpt>
      <trkpt lat="46.99821" lon="-0.90951">
        <ele>109</ele>
        <time>2022-10-04T12:38:09Z</time>
      </trkpt>
      <trkpt lat="46.99849" lon="-0.90928">
        <ele>109</ele>
        <time>2022-10-04T12:38:52Z</time>
      </trkpt>
      <trkpt lat="46.9985" lon="-0.90916">
        <ele>110</ele>
        <time>2022-10-04T12:39:03Z</time>
      </trkpt>
      <trkpt lat="46.99837" lon="-0.9087">
        <ele>110</ele>
        <time>2022-10-04T12:39:48Z</time>
      </trkpt>
      <trkpt lat="46.99819" lon="-0.90824">
        <ele>111</ele>
        <time>2022-10-04T12:40:36Z</time>
      </trkpt>
      <trkpt lat="46.99795" lon="-0.90777">
        <ele>113</ele>
        <time>2022-10-04T12:41:30Z</time>
      </trkpt>
      <trkpt lat="46.9979" lon="-0.90757">
        <ele>113</ele>
        <time>2022-10-04T12:41:49Z</time>
      </trkpt>
      <trkpt lat="46.99768" lon="-0.90709">
        <ele>115</ele>
        <time>2022-10-04T12:42:42Z</time>
      </trkpt>
      <trkpt lat="46.99766" lon="-0.90696">
        <ele>115</ele>
        <time>2022-10-04T12:42:54Z</time>
      </trkpt>
      <trkpt lat="46.99775" lon="-0.90667">
        <ele>115</ele>
        <time>2022-10-04T12:43:23Z</time>
      </trkpt>
      <trkpt lat="46.99783" lon="-0.90651">
        <ele>115</ele>
        <time>2022-10-04T12:43:41Z</time>
      </trkpt>
      <trkpt lat="46.99812" lon="-0.906">
        <ele>115</ele>
        <time>2022-10-04T12:44:41Z</time>
      </trkpt>
      <trkpt lat="46.99831" lon="-0.90573">
        <ele>115</ele>
        <time>2022-10-04T12:45:16Z</time>
      </trkpt>
      <trkpt lat="46.99842" lon="-0.90549">
        <ele>115</ele>
        <time>2022-10-04T12:45:43Z</time>
      </trkpt>
      <trkpt lat="46.99867" lon="-0.90515">
        <ele>115</ele>
        <time>2022-10-04T12:46:28Z</time>
      </trkpt>
      <trkpt lat="46.99884" lon="-0.90483">
        <ele>115</ele>
        <time>2022-10-04T12:47:05Z</time>
      </trkpt>
      <trkpt lat="46.99887" lon="-0.90482">
        <ele>115</ele>
        <time>2022-10-04T12:47:09Z</time>
      </trkpt>
      <trkpt lat="46.99893" lon="-0.90489">
        <ele>115</ele>
        <time>2022-10-04T12:47:20Z</time>
      </trkpt>
      <trkpt lat="46.99895" lon="-0.90488">
        <ele>115</ele>
        <time>2022-10-04T12:47:22Z</time>
      </trkpt>
      <trkpt lat="46.99892" lon="-0.90452">
        <ele>115</ele>
        <time>2022-10-04T12:47:55Z</time>
      </trkpt>
      <trkpt lat="46.9986" lon="-0.90419">
        <ele>116</ele>
        <time>2022-10-04T12:48:48Z</time>
      </trkpt>
      <trkpt lat="46.99834" lon="-0.904">
        <ele>116</ele>
        <time>2022-10-04T12:49:26Z</time>
      </trkpt>
      <trkpt lat="46.9981" lon="-0.90376">
        <ele>117</ele>
        <time>2022-10-04T12:50:05Z</time>
      </trkpt>
      <trkpt lat="46.99804" lon="-0.90373">
        <ele>117</ele>
        <time>2022-10-04T12:50:14Z</time>
      </trkpt>
      <trkpt lat="46.9974" lon="-0.90315">
        <ele>119</ele>
        <time>2022-10-04T12:51:54Z</time>
      </trkpt>
      <trkpt lat="46.99662" lon="-0.90253">
        <ele>121</ele>
        <time>2022-10-04T12:53:52Z</time>
      </trkpt>
      <trkpt lat="46.99635" lon="-0.90225">
        <ele>121</ele>
        <time>2022-10-04T12:54:37Z</time>
      </trkpt>
      <trkpt lat="46.99591" lon="-0.90202">
        <ele>122</ele>
        <time>2022-10-04T12:55:39Z</time>
      </trkpt>
      <trkpt lat="46.99566" lon="-0.90196">
        <ele>122</ele>
        <time>2022-10-04T12:56:13Z</time>
      </trkpt>
      <trkpt lat="46.99558" lon="-0.9019">
        <ele>121</ele>
        <time>2022-10-04T12:56:25Z</time>
      </trkpt>
      <trkpt lat="46.99545" lon="-0.90135">
        <ele>122</ele>
        <time>2022-10-04T12:57:18Z</time>
      </trkpt>
      <trkpt lat="46.99542" lon="-0.90095">
        <ele>122</ele>
        <time>2022-10-04T12:57:54Z</time>
      </trkpt>
      <trkpt lat="46.99543" lon="-0.90077">
        <ele>123</ele>
        <time>2022-10-04T12:58:11Z</time>
      </trkpt>
      <trkpt lat="46.99533" lon="-0.9007">
        <ele>123</ele>
        <time>2022-10-04T12:58:25Z</time>
      </trkpt>
    </trkseg>
  </trk>
</gpx>